Eagle Harbor, New York
Current Conditions -  °F | °C
As of 5:54 AM on Saturday 25 Oct 2014 (Local Time) from KROC Reporting Station
Overcast Overcast  
Wind Chill: 10°   Ceiling: 6000
Heat Index: 10°   Visibility: 7mi
Dew Point:   Wind: 6mph
Humidity: 86%   Direction: 210°SSW
Pressure: 29.85"   Gusts: NA
Location:  43.2353°N, 78.214°W
Report Text: KROC 250954Z 21005KT 7SM OVC060 10/08 A2985 RMK AO2 SLP111 T01000078
Loading
Personal Weather Stations






























Interactive Weather Map
Tropical Storm Tracking
New forecast layout! Learn more

10-Day Weather Forecast

Advertisements
Track Severe Weather on mobile